航空天氣報告(METAR) 航空天氣預測(TAF) 其他聯結
怎樣閱讀航空天氣報告? 過往48小時航空天氣(METAR)報告
本月內所有航空天氣(METAR)報告
最新航空天氣報告(METAR)(香港國際機場發出)
地區編碼:VHHH

METAR VHHH 151800Z 09007KT 050V150 9999 FEW015 SCT035 26/23 Q1013 
NOSIG= 

最新航空天氣預測(TAF)(香港國際機場發出)
地區編碼:VHHH

TAF VHHH 151700Z 1518/1624 09010KT 9000 FEW015 SCT035 TX26/1606Z 
TN23/1523Z TN22/1622Z TEMPO 1518/1524 VRB05KT 3000 SHRA FEW012CB 
SCT025 TEMPO 1600/1609 03010KT 3500 SHRA BECMG 1609/1611 03010KT= 

其他聯結

National Weather Service (NWS)

請選擇氣象中心地點:

最新METAR報告:

最新TAF報告:

香港地下天文台

地區編碼:VHHH (香港國際機場)

最新地面氣象分析報告 (每六小時更新一次)
最新METAR報告
最新TAF報告

Hong Kong Weather Graphics

地區編碼:VHHH (香港國際機場)

此網站將過往72小時的METAR報告繪成以下圖表。

氣溫
能見度
大氣氣壓
風向及風速

香港天文台

香港航空天氣預報
機場天氣報告(METAR/SPECI)
機場天氣預報(TAF)


如對本網頁有任何意見,歡迎電郵致webmaster@weatherland.org.hk